Time;durP1;ratioP1;P1;durP2;ratioP2;P2;SDS_P1;SDS_P2;PMS_P1;PMS_P2;Temp;Humidity;BMP_temperature;BMP_pressure;BME280_temperature;BME280_humidity;BME280_pressure;Samples;Min_cycle;Max_cycle;Signal;HPM_P1;HPM_P2
2023/04/05 00:01:31;;;;;;;0.30;0.30;;;0.70;99.90;;;;;;5075618;28;20099;-75
2023/04/05 00:03:57;;;;;;;0.30;0.30;;;0.60;99.90;;;;;;5076621;28;20032;-76
2023/04/05 00:06:30;;;;;;;0.20;0.20;;;0.50;99.90;;;;;;5077056;28;20021;-76
2023/04/05 00:09:01;;;;;;;0.20;0.20;;;0.40;99.90;;;;;;5063803;28;20094;-76
2023/04/05 00:11:35;;;;;;;0.20;0.20;;;0.30;99.90;;;;;;5060812;28;20022;-76
2023/04/05 00:14:02;;;;;;;0.20;0.20;;;0.20;99.90;;;;;;5066026;28;20029;-76
2023/04/05 00:16:28;;;;;;;0.25;0.25;;;0.10;99.90;;;;;;5056788;28;20052;-76
2023/04/05 00:18:56;;;;;;;0.40;0.40;;;0.00;99.90;;;;;;5056724;28;20021;-76
2023/04/05 00:21:22;;;;;;;0.20;0.20;;;-0.10;99.90;;;;;;5057131;28;20028;-76
2023/04/05 00:23:53;;;;;;;0.20;0.20;;;-0.10;99.90;;;;;;5056723;28;20033;-76
2023/04/05 00:26:21;;;;;;;0.30;0.30;;;-0.20;99.90;;;;;;5039255;28;20080;-76
2023/04/05 00:28:47;;;;;;;0.20;0.20;;;-0.20;99.90;;;;;;5056606;28;20509;-76
2023/04/05 00:31:13;;;;;;;0.13;0.13;;;-0.20;99.90;;;;;;5058481;28;20114;-76
2023/04/05 00:33:39;;;;;;;0.20;0.20;;;-0.10;99.90;;;;;;5076271;28;20025;-76
2023/04/05 00:36:11;;;;;;;0.30;0.30;;;-0.10;99.90;;;;;;5076919;28;20032;-76
2023/04/05 00:38:37;;;;;;;0.22;0.22;;;0.00;99.90;;;;;;5076604;28;20029;-75
2023/04/05 00:41:03;;;;;;;0.15;0.15;;;0.00;99.90;;;;;;5075277;28;20020;-76
2023/04/05 00:43:28;;;;;;;0.30;0.30;;;-0.10;99.90;;;;;;5076219;28;20032;-76
2023/04/05 00:45:55;;;;;;;0.28;0.28;;;-0.10;99.90;;;;;;5075775;28;20032;-76
2023/04/05 00:48:21;;;;;;;0.20;0.20;;;-0.20;99.90;;;;;;5058595;28;20116;-76
2023/04/05 00:50:49;;;;;;;0.20;0.20;;;-0.20;99.90;;;;;;5058195;28;20031;-76
2023/04/05 00:53:18;;;;;;;0.20;0.20;;;-0.20;99.90;;;;;;5058427;28;20033;-76
2023/04/05 00:55:48;;;;;;;0.20;0.20;;;-0.20;99.90;;;;;;5063373;22;20147;-76
2023/04/05 00:58:18;;;;;;;0.32;0.32;;;-0.10;99.90;;;;;;5056174;28;20474;-76
2023/04/05 01:01:05;;;;;;;0.30;0.30;;;-0.10;99.90;;;;;;5056773;28;20036;-76
2023/04/05 01:03:33;;;;;;;0.20;0.20;;;-0.20;99.90;;;;;;5037687;28;20493;-76
2023/04/05 01:06:32;;;;;;;0.20;0.20;;;-0.20;99.90;;;;;;5056023;28;20041;-76
2023/04/05 01:09:22;;;;;;;0.22;0.22;;;-0.20;99.90;;;;;;5038070;28;20388;-76
2023/04/05 01:11:48;;;;;;;0.20;0.20;;;-0.30;99.90;;;;;;5038298;28;20028;-76
2023/04/05 01:14:32;;;;;;;0.30;0.30;;;-0.50;99.90;;;;;;5078710;22;20482;-78
2023/04/05 01:17:08;;;;;;;0.20;0.20;;;-0.50;99.90;;;;;;5055980;28;20078;-76
2023/04/05 01:19:46;;;;;;;0.30;0.30;;;-0.60;99.90;;;;;;5055615;28;20571;-76
2023/04/05 01:22:36;;;;;;;0.20;0.20;;;-0.60;99.90;;;;;;5040162;28;20033;-76
2023/04/05 01:25:35;;;;;;;0.20;0.20;;;-0.70;99.90;;;;;;5055907;28;20021;-76
2023/04/05 01:28:31;;;;;;;0.30;0.30;;;-0.80;99.90;;;;;;5056060;28;20116;-78
2023/04/05 01:31:17;;;;;;;0.30;0.30;;;-0.80;99.90;;;;;;5055279;28;20075;-76
2023/04/05 01:34:16;;;;;;;0.30;0.30;;;-0.90;99.90;;;;;;5037056;28;20045;-76
2023/04/05 01:36:54;;;;;;;0.20;0.20;;;-0.90;99.90;;;;;;5027104;28;20036;-76
2023/04/05 01:39:22;;;;;;;0.28;0.28;;;-1.00;99.90;;;;;;5056507;28;20423;-78
2023/04/05 01:41:47;;;;;;;0.20;0.20;;;-1.00;99.90;;;;;;5037346;28;20021;-76
2023/04/05 01:44:13;;;;;;;0.20;0.20;;;-1.10;99.90;;;;;;5037900;28;20028;-76
2023/04/05 01:46:38;;;;;;;0.30;0.30;;;-1.10;99.90;;;;;;5054888;28;20021;-76
2023/04/05 01:49:04;;;;;;;0.30;0.30;;;-1.10;99.90;;;;;;5038651;28;20021;-78
2023/04/05 01:51:30;;;;;;;0.20;0.20;;;-1.10;99.90;;;;;;5055537;28;20025;-76
2023/04/05 01:53:56;;;;;;;0.30;0.30;;;-1.20;99.90;;;;;;5066372;28;20393;-76
2023/04/05 01:56:21;;;;;;;0.30;0.30;;;-1.20;99.90;;;;;;5075274;28;20052;-76
2023/04/05 01:58:47;;;;;;;0.30;0.30;;;-1.20;99.90;;;;;;5057122;28;20432;-76
2023/04/05 02:01:13;;;;;;;0.28;0.28;;;-1.30;99.90;;;;;;5076062;28;20401;-76
2023/04/05 02:03:38;;;;;;;0.20;0.20;;;-1.40;99.90;;;;;;5075554;28;20025;-78
2023/04/05 02:06:04;;;;;;;0.25;0.25;;;-1.40;99.90;;;;;;5076778;28;20024;-76
2023/04/05 02:08:30;;;;;;;0.22;0.22;;;-1.40;99.90;;;;;;5069827;28;20025;-78
2023/04/05 02:10:56;;;;;;;0.20;0.20;;;-1.40;99.90;;;;;;5037699;28;20076;-78
2023/04/05 02:13:22;;;;;;;0.30;0.30;;;-1.40;99.90;;;;;;5055532;28;20017;-78
2023/04/05 02:15:49;;;;;;;0.25;0.25;;;-1.40;99.90;;;;;;5037445;28;20127;-77
2023/04/05 02:18:14;;;;;;;0.20;0.20;;;-1.40;99.90;;;;;;5055724;28;20017;-76
2023/04/05 02:20:40;;;;;;;0.32;0.32;;;-1.50;99.90;;;;;;5037012;28;20434;-77
2023/04/05 02:23:07;;;;;;;0.30;0.30;;;-1.50;99.90;;;;;;5055783;28;20563;-78
2023/04/05 02:25:32;;;;;;;0.30;0.30;;;-1.40;99.90;;;;;;5037551;28;20394;-78
2023/04/05 02:27:58;;;;;;;0.25;0.25;;;-1.40;99.90;;;;;;5055628;28;20032;-76
2023/04/05 02:30:27;;;;;;;0.30;0.30;;;-1.40;99.90;;;;;;5057435;28;20025;-78
2023/04/05 02:32:54;;;;;;;0.30;0.30;;;-1.40;99.90;;;;;;5055483;28;20021;-76
2023/04/05 02:35:20;;;;;;;0.20;0.20;;;-1.50;99.90;;;;;;5056013;28;20037;-78
2023/04/05 02:37:45;;;;;;;0.20;0.20;;;-1.50;99.90;;;;;;5037144;28;20024;-76
2023/04/05 02:40:13;;;;;;;0.20;0.20;;;-1.60;99.90;;;;;;5055361;28;20021;-76
2023/04/05 02:42:39;;;;;;;0.30;0.30;;;-1.60;99.90;;;;;;5054730;28;20025;-78
2023/04/05 02:45:05;;;;;;;0.20;0.20;;;-1.70;99.90;;;;;;5036998;28;20031;-78
2023/04/05 02:47:31;;;;;;;0.20;0.20;;;-1.70;99.90;;;;;;5054728;28;20060;-76
2023/04/05 02:49:56;;;;;;;0.20;0.20;;;-1.60;99.90;;;;;;5055838;28;20025;-78
2023/04/05 02:52:22;;;;;;;0.22;0.22;;;-1.70;99.90;;;;;;5037934;28;20609;-78
2023/04/05 02:54:48;;;;;;;0.17;0.17;;;-1.70;99.90;;;;;;5056493;28;20029;-77
2023/04/05 02:57:15;;;;;;;0.30;0.30;;;-1.70;99.90;;;;;;5037613;28;20112;-78
2023/04/05 02:59:41;;;;;;;0.30;0.30;;;-1.70;99.90;;;;;;5037084;28;20024;-78
2023/04/05 03:02:08;;;;;;;0.40;0.40;;;-1.70;99.90;;;;;;5055386;28;20049;-76
2023/04/05 03:04:34;;;;;;;0.30;0.30;;;-1.70;99.90;;;;;;5057597;28;20025;-76
2023/04/05 03:07:03;;;;;;;0.30;0.30;;;-1.70;99.90;;;;;;5058297;28;20051;-78
2023/04/05 03:09:32;;;;;;;0.15;0.15;;;-1.70;99.90;;;;;;5040598;28;20500;-78
2023/04/05 03:12:02;;;;;;;0.30;0.30;;;-1.80;99.90;;;;;;5058986;28;20036;-78
2023/04/05 03:14:29;;;;;;;0.20;0.20;;;-1.80;99.90;;;;;;5065755;22;20045;-76
2023/04/05 03:16:55;;;;;;;0.20;0.20;;;-1.80;99.90;;;;;;5058482;28;20033;-76
2023/04/05 03:19:21;;;;;;;0.30;0.30;;;-1.80;99.90;;;;;;5057646;28;20027;-76
2023/04/05 03:21:47;;;;;;;0.30;0.30;;;-1.80;99.90;;;;;;5039926;28;20082;-76
2023/04/05 03:24:14;;;;;;;0.30;0.30;;;-1.80;99.90;;;;;;5058841;28;20441;-76
2023/04/05 03:26:42;;;;;;;0.22;0.22;;;-1.90;99.90;;;;;;5058845;28;20033;-78
2023/04/05 03:29:07;;;;;;;0.30;0.30;;;-1.90;99.90;;;;;;5058492;28;20025;-76
2023/04/05 03:31:33;;;;;;;0.30;0.30;;;-2.00;99.90;;;;;;5057785;28;20108;-76
2023/04/05 03:33:58;;;;;;;0.22;0.22;;;-2.00;99.90;;;;;;5058970;28;20035;-78
2023/04/05 03:36:27;;;;;;;0.13;0.13;;;-2.10;99.90;;;;;;5058692;28;20088;-78
2023/04/05 03:38:54;;;;;;;0.30;0.30;;;-2.10;99.90;;;;;;5057993;28;20029;-78
2023/04/05 03:41:20;;;;;;;0.20;0.20;;;-2.10;99.90;;;;;;5040335;28;20025;-77
2023/04/05 03:43:47;;;;;;;0.20;0.20;;;-2.10;99.90;;;;;;5039598;28;20494;-78
2023/04/05 03:46:13;;;;;;;0.30;0.30;;;-2.10;99.90;;;;;;5057318;28;20497;-78
2023/04/05 03:48:39;;;;;;;0.28;0.28;;;-2.10;99.90;;;;;;5058596;28;20029;-77
2023/04/05 03:51:07;;;;;;;0.30;0.30;;;-2.20;99.90;;;;;;5040154;28;20021;-75
2023/04/05 03:53:36;;;;;;;0.20;0.20;;;-2.20;99.90;;;;;;5072005;22;20478;-77
2023/04/05 03:56:20;;;;;;;0.20;0.20;;;-2.20;99.90;;;;;;5056968;28;20047;-77
2023/04/05 03:59:03;;;;;;;0.28;0.28;;;-2.20;99.90;;;;;;5058375;28;20025;-77
2023/04/05 04:01:35;;;;;;;0.22;0.22;;;-2.30;99.90;;;;;;5039111;28;20025;-78
2023/04/05 04:04:03;;;;;;;0.25;0.25;;;-2.30;99.90;;;;;;5037087;28;20025;-76
2023/04/05 04:06:31;;;;;;;0.30;0.30;;;-2.30;99.90;;;;;;5019613;28;20397;-77
2023/04/05 04:08:57;;;;;;;0.28;0.28;;;-2.30;99.90;;;;;;5037076;28;20091;-77
2023/04/05 04:11:23;;;;;;;0.30;0.30;;;-2.40;99.90;;;;;;5072218;28;20396;-76
2023/04/05 04:13:48;;;;;;;0.30;0.30;;;-2.40;99.90;;;;;;5077026;28;20076;-75
2023/04/05 04:16:14;;;;;;;0.20;0.20;;;-2.40;99.90;;;;;;5075755;28;20394;-77
2023/04/05 04:18:40;;;;;;;0.28;0.28;;;-2.40;99.90;;;;;;5074303;28;20029;-77
2023/04/05 04:21:05;;;;;;;0.20;0.20;;;-2.40;99.90;;;;;;5068381;28;20028;-77
2023/04/05 04:23:33;;;;;;;0.30;0.30;;;-2.40;99.90;;;;;;5080470;22;20071;-77
2023/04/05 04:26:00;;;;;;;0.30;0.30;;;-2.40;99.90;;;;;;5077591;28;20131;-77
2023/04/05 04:28:26;;;;;;;0.35;0.35;;;-2.30;99.90;;;;;;5078266;28;20017;-77
2023/04/05 04:30:52;;;;;;;0.20;0.20;;;-2.30;99.90;;;;;;5078254;28;20039;-77
2023/04/05 04:33:18;;;;;;;0.25;0.25;;;-2.40;99.90;;;;;;5078803;28;20557;-77
2023/04/05 04:35:45;;;;;;;0.30;0.30;;;-2.30;99.90;;;;;;5077892;28;20390;-77
2023/04/05 04:38:17;;;;;;;0.20;0.20;;;-2.40;99.90;;;;;;5060270;28;20024;-76
2023/04/05 04:40:49;;;;;;;0.20;0.20;;;-2.40;99.90;;;;;;5078272;28;20381;-77
2023/04/05 04:43:17;;;;;;;0.20;0.20;;;-2.40;99.90;;;;;;5060035;28;20493;-77
2023/04/05 04:45:46;;;;;;;0.20;0.20;;;-2.50;99.90;;;;;;5077134;28;20025;-78
2023/04/05 04:48:15;;;;;;;0.20;0.20;;;-2.50;99.90;;;;;;5077629;28;20549;-77
2023/04/05 04:50:44;;;;;;;0.30;0.30;;;-2.50;99.90;;;;;;5077540;28;20025;-77
2023/04/05 04:53:10;;;;;;;0.25;0.25;;;-2.50;99.90;;;;;;5078063;28;20477;-77
2023/04/05 04:55:39;;;;;;;0.20;0.20;;;-2.50;99.90;;;;;;5058893;28;20025;-77
2023/04/05 04:58:08;;;;;;;0.20;0.20;;;-2.60;99.90;;;;;;5077093;28;20027;-77
2023/04/05 05:00:35;;;;;;;0.30;0.30;;;-2.60;99.90;;;;;;5077151;28;20425;-77
2023/04/05 05:03:01;;;;;;;0.30;0.30;;;-2.60;99.90;;;;;;5059812;28;20024;-78
2023/04/05 05:05:27;;;;;;;0.30;0.30;;;-2.70;99.90;;;;;;5077026;28;20089;-77
2023/04/05 05:07:55;;;;;;;0.30;0.30;;;-2.70;99.90;;;;;;5076320;28;20432;-77
2023/04/05 05:10:21;;;;;;;0.20;0.20;;;-2.70;99.90;;;;;;5076843;28;20074;-77
2023/04/05 05:12:50;;;;;;;0.25;0.25;;;-2.70;99.90;;;;;;5076901;28;20012;-77
2023/04/05 05:15:16;;;;;;;0.20;0.20;;;-2.70;99.90;;;;;;5059309;28;20021;-77
2023/04/05 05:17:41;;;;;;;0.20;0.20;;;-2.70;99.90;;;;;;5058924;28;20028;-77
2023/04/05 05:20:11;;;;;;;0.30;0.30;;;-2.70;99.90;;;;;;5076153;28;20024;-77
2023/04/05 05:22:37;;;;;;;0.30;0.30;;;-2.60;99.90;;;;;;5058520;28;20418;-77
2023/04/05 05:25:07;;;;;;;0.25;0.25;;;-2.60;99.90;;;;;;5058829;28;20075;-77
2023/04/05 05:27:33;;;;;;;0.30;0.30;;;-2.50;99.90;;;;;;5076465;28;20025;-77
2023/04/05 05:29:59;;;;;;;0.20;0.20;;;-2.40;99.90;;;;;;5076595;28;20039;-77
2023/04/05 05:32:24;;;;;;;0.25;0.25;;;-2.40;99.90;;;;;;5076049;28;20023;-77
2023/04/05 05:34:50;;;;;;;0.20;0.20;;;-2.40;99.90;;;;;;5062010;23;20049;-77
2023/04/05 05:37:16;;;;;;;0.22;0.22;;;-2.30;99.90;;;;;;5056809;28;20021;-77
2023/04/05 05:39:43;;;;;;;0.20;0.20;;;-2.30;99.90;;;;;;5056562;28;20033;-77
2023/04/05 05:42:09;;;;;;;0.20;0.20;;;-2.20;99.90;;;;;;5055511;28;20053;-77
2023/04/05 05:44:37;;;;;;;0.30;0.30;;;-2.10;99.90;;;;;;5054980;28;20064;-77
2023/04/05 05:47:03;;;;;;;0.30;0.30;;;-1.90;99.90;;;;;;5055954;28;20509;-77
2023/04/05 05:49:28;;;;;;;0.30;0.30;;;-1.80;99.90;;;;;;5056872;28;20029;-77
2023/04/05 05:51:55;;;;;;;0.30;0.30;;;-1.70;99.90;;;;;;5054813;28;20402;-77
2023/04/05 05:54:21;;;;;;;0.35;0.35;;;-1.50;99.90;;;;;;5077658;22;20070;-76
2023/04/05 05:56:46;;;;;;;0.20;0.20;;;-1.40;99.90;;;;;;5077190;28;20498;-78
2023/04/05 05:59:12;;;;;;;0.20;0.20;;;-1.30;99.90;;;;;;5079974;28;20021;-78
2023/04/05 06:01:41;;;;;;;0.22;0.22;;;-1.10;99.90;;;;;;5078914;28;20435;-78
2023/04/05 06:04:07;;;;;;;0.20;0.20;;;-1.00;99.90;;;;;;5076921;28;20021;-77
2023/04/05 06:06:33;;;;;;;0.20;0.20;;;-0.80;99.90;;;;;;5079159;22;20041;-76
2023/04/05 06:09:01;;;;;;;0.20;0.20;;;-0.60;99.90;;;;;;5052624;28;20029;-75
2023/04/05 06:11:26;;;;;;;0.28;0.28;;;-0.40;99.90;;;;;;5052877;28;20833;-75
2023/04/05 06:13:54;;;;;;;0.20;0.20;;;-0.20;99.90;;;;;;5052424;28;20112;-75
2023/04/05 06:16:20;;;;;;;0.20;0.20;;;-0.10;99.90;;;;;;5034290;28;20121;-76
2023/04/05 06:18:49;;;;;;;0.30;0.30;;;-0.10;99.90;;;;;;5052676;28;20067;-76
2023/04/05 06:21:17;;;;;;;0.20;0.20;;;-0.10;99.90;;;;;;5052213;28;20106;-76
2023/04/05 06:23:42;;;;;;;0.20;0.20;;;-0.20;99.90;;;;;;5052571;28;20074;-76
2023/04/05 06:26:14;;;;;;;0.30;0.30;;;-0.20;99.90;;;;;;5051728;28;20553;-76
2023/04/05 06:28:39;;;;;;;0.30;0.30;;;-0.20;99.90;;;;;;5052385;28;20395;-76
2023/04/05 06:31:05;;;;;;;0.20;0.20;;;-0.10;99.90;;;;;;5052810;28;20036;-76
2023/04/05 06:33:30;;;;;;;0.28;0.28;;;-0.10;99.90;;;;;;5052033;28;20021;-76
2023/04/05 06:35:56;;;;;;;0.30;0.30;;;0.00;99.90;;;;;;5052295;28;20371;-76
2023/04/05 06:38:21;;;;;;;0.22;0.22;;;0.20;99.90;;;;;;5051997;28;20017;-76
2023/04/05 06:40:47;;;;;;;0.20;0.20;;;0.40;99.90;;;;;;5055903;28;20482;-76
2023/04/05 06:43:15;;;;;;;0.30;0.30;;;0.60;99.90;;;;;;5038503;28;20100;-76
2023/04/05 06:45:42;;;;;;;0.20;0.20;;;0.80;99.90;;;;;;5056065;28;20025;-75
2023/04/05 06:48:07;;;;;;;0.20;0.20;;;0.80;99.90;;;;;;5055560;28;20043;-76
2023/04/05 06:50:33;;;;;;;0.20;0.20;;;0.80;99.90;;;;;;5037964;28;20561;-76
2023/04/05 06:52:58;;;;;;;0.20;0.20;;;0.90;99.90;;;;;;5055929;28;20051;-76
2023/04/05 06:55:24;;;;;;;0.30;0.30;;;1.00;99.90;;;;;;5055973;28;20097;-76
2023/04/05 06:57:50;;;;;;;0.20;0.20;;;1.00;99.90;;;;;;5056057;28;20033;-76
2023/04/05 07:00:16;;;;;;;0.28;0.28;;;1.10;99.90;;;;;;5037383;28;20029;-76
2023/04/05 07:02:42;;;;;;;0.30;0.30;;;1.30;99.90;;;;;;5055735;28;20033;-76
2023/04/05 07:05:07;;;;;;;0.32;0.32;;;1.40;99.90;;;;;;5055587;28;20407;-76
2023/04/05 07:07:44;;;;;;;0.20;0.20;;;1.50;99.90;;;;;;5055451;28;20025;-76
2023/04/05 07:10:10;;;;;;;0.30;0.30;;;1.70;99.90;;;;;;5037977;28;20109;-76
2023/04/05 07:12:36;;;;;;;0.22;0.22;;;1.80;99.90;;;;;;5055630;28;20494;-76
2023/04/05 07:15:02;;;;;;;0.20;0.20;;;2.00;99.90;;;;;;5037218;28;20107;-76
2023/04/05 07:17:28;;;;;;;0.10;0.10;;;2.10;99.90;;;;;;5037758;28;20052;-76
2023/04/05 07:19:53;;;;;;;0.20;0.20;;;2.30;99.90;;;;;;5055697;28;20047;-76
2023/04/05 07:22:19;;;;;;;0.20;0.20;;;2.30;99.90;;;;;;5054780;28;20067;-76
2023/04/05 07:24:45;;;;;;;0.25;0.25;;;2.50;99.90;;;;;;5055324;28;20025;-76
2023/04/05 07:27:11;;;;;;;0.25;0.25;;;2.80;99.90;;;;;;5054908;28;20462;-77
2023/04/05 07:29:39;;;;;;;0.20;0.20;;;2.80;99.90;;;;;;5038037;28;20104;-77
2023/04/05 07:32:08;;;;;;;0.20;0.20;;;2.70;99.90;;;;;;5055415;28;20027;-77
2023/04/05 07:34:34;;;;;;;0.22;0.22;;;3.10;99.90;;;;;;5055050;28;20036;-77
2023/04/05 07:37:00;;;;;;;0.20;0.20;;;3.10;99.90;;;;;;5055231;28;20036;-77
2023/04/05 07:39:25;;;;;;;0.20;0.20;;;3.30;99.90;;;;;;5055053;28;20390;-76
2023/04/05 07:41:54;;;;;;;0.28;0.28;;;3.50;99.90;;;;;;5055511;28;20021;-77
2023/04/05 07:44:20;;;;;;;0.20;0.20;;;3.60;99.90;;;;;;5054887;28;20116;-77
2023/04/05 07:46:45;;;;;;;0.20;0.20;;;3.70;99.90;;;;;;5054689;28;20123;-77
2023/04/05 07:49:11;;;;;;;0.20;0.20;;;3.80;99.90;;;;;;5055485;28;20032;-77
2023/04/05 07:51:37;;;;;;;0.20;0.20;;;3.70;99.90;;;;;;5055074;28;20021;-77
2023/04/05 07:54:06;;;;;;;0.20;0.20;;;3.90;99.90;;;;;;5039285;28;20382;-78
2023/04/05 07:56:32;;;;;;;0.10;0.10;;;4.10;99.90;;;;;;5056602;28;20402;-78
2023/04/05 07:58:58;;;;;;;0.20;0.20;;;4.40;99.90;;;;;;5057849;28;20033;-77
2023/04/05 08:01:26;;;;;;;0.20;0.20;;;4.60;99.90;;;;;;5057888;28;20457;-78
2023/04/05 08:03:58;;;;;;;0.20;0.20;;;4.80;99.90;;;;;;5055564;28;20021;-77
2023/04/05 08:06:44;;;;;;;0.30;0.30;;;4.90;99.90;;;;;;5104353;22;20041;-77
2023/04/05 08:09:10;;;;;;;0.20;0.20;;;4.90;99.90;;;;;;5055264;28;20853;-77
2023/04/05 08:11:35;;;;;;;0.20;0.20;;;5.00;99.90;;;;;;5056557;28;20029;-78
2023/04/05 08:14:01;;;;;;;0.30;0.30;;;5.20;99.90;;;;;;5039698;28;20029;-78
2023/04/05 08:16:26;;;;;;;0.20;0.20;;;5.20;99.90;;;;;;5056226;28;20450;-78
2023/04/05 08:18:52;;;;;;;0.15;0.15;;;5.40;99.90;;;;;;5059221;28;20029;-78
2023/04/05 08:21:18;;;;;;;0.20;0.20;;;5.50;99.90;;;;;;5042330;28;20059;-78
2023/04/05 08:23:45;;;;;;;0.20;0.20;;;5.80;99.90;;;;;;5057575;28;20479;-77
2023/04/05 08:26:11;;;;;;;0.20;0.20;;;5.90;99.90;;;;;;5058124;28;20036;-78
2023/04/05 08:28:36;;;;;;;0.20;0.20;;;6.00;99.90;;;;;;5040792;28;20386;-78
2023/04/05 08:31:02;;;;;;;0.20;0.20;;;6.30;99.90;;;;;;5040979;28;20025;-78
2023/04/05 08:33:29;;;;;;;0.20;0.20;;;6.40;99.90;;;;;;5040815;28;20014;-77
2023/04/05 08:35:56;;;;;;;0.20;0.20;;;6.60;99.90;;;;;;5058813;28;20013;-78
2023/04/05 08:38:22;;;;;;;0.20;0.20;;;6.70;99.90;;;;;;5040757;28;20017;-77
2023/04/05 08:40:48;;;;;;;0.20;0.20;;;6.90;99.90;;;;;;5059126;28;20021;-77
2023/04/05 08:43:41;;;;;;;0.20;0.20;;;6.80;99.90;;;;;;5059626;28;20030;-78
2023/04/05 08:46:08;;;;;;;0.20;0.20;;;6.70;99.90;;;;;;5056780;28;20363;-78
2023/04/05 08:48:37;;;;;;;0.17;0.17;;;6.80;99.90;;;;;;5038528;28;20033;-78
2023/04/05 08:51:03;;;;;;;0.20;0.20;;;7.00;99.90;;;;;;5058033;28;20028;-77
2023/04/05 08:53:38;;;;;;;;;;;;;;;;;;;;;
2023/04/05 08:56:05;;;;;;;0.20;0.20;;;7.10;99.90;;;;;;5056640;28;20031;-78
2023/04/05 08:58:34;;;;;;;0.20;0.20;;;7.10;99.90;;;;;;5056056;28;20029;-77
2023/04/05 09:01:00;;;;;;;0.20;0.20;;;7.20;99.90;;;;;;5057121;28;20018;-78
2023/04/05 09:03:38;;;;;;;0.13;0.13;;;7.40;99.90;;;;;;5038405;28;20021;-78
2023/04/05 09:06:06;;;;;;;0.10;0.10;;;7.40;99.90;;;;;;5055858;28;20128;-77
2023/04/05 09:08:34;;;;;;;0.20;0.20;;;7.50;99.90;;;;;;5055963;28;20056;-77
2023/04/05 09:10:59;;;;;;;0.20;0.20;;;7.50;99.90;;;;;;5058414;28;20042;-77
2023/04/05 09:13:25;;;;;;;0.20;0.20;;;7.70;99.90;;;;;;5057807;28;20104;-78
2023/04/05 09:15:51;;;;;;;0.20;0.20;;;7.80;99.90;;;;;;5058144;28;20114;-78
2023/04/05 09:18:19;;;;;;;0.20;0.20;;;7.90;99.90;;;;;;5058885;28;20021;-77
2023/04/05 09:20:45;;;;;;;0.20;0.20;;;8.10;99.90;;;;;;5039154;28;20032;-78
2023/04/05 09:23:10;;;;;;;0.20;0.20;;;8.20;99.90;;;;;;5040077;28;20017;-78
2023/04/05 09:25:41;;;;;;;0.20;0.20;;;8.40;99.90;;;;;;5040600;28;20017;-78
2023/04/05 09:28:07;;;;;;;0.10;0.10;;;8.40;99.90;;;;;;5057091;28;20482;-77
2023/04/05 09:30:35;;;;;;;0.28;0.28;;;8.50;99.90;;;;;;5057730;28;20029;-78
2023/04/05 09:33:02;;;;;;;0.20;0.20;;;8.80;99.90;;;;;;5058064;28;20390;-78
2023/04/05 09:35:30;;;;;;;0.10;0.10;;;8.80;99.90;;;;;;5058332;28;20076;-78
2023/04/05 09:38:00;;;;;;;0.10;0.10;;;9.00;99.90;;;;;;5041015;28;20029;-78
2023/04/05 09:40:46;;;;;;;0.20;0.20;;;9.10;99.90;;;;;;5040737;28;20029;-78
2023/04/05 09:43:32;;;;;;;0.10;0.10;;;9.10;99.90;;;;;;5058163;28;20052;-77
2023/04/05 09:45:59;;;;;;;0.10;0.10;;;9.10;99.90;;;;;;5057489;28;20120;-77
2023/04/05 09:48:45;;;;;;;0.20;0.20;;;9.30;99.90;;;;;;5059140;28;20084;-77
2023/04/05 09:51:11;;;;;;;0.20;0.20;;;9.40;99.90;;;;;;5059371;28;20047;-78
2023/04/05 09:53:37;;;;;;;0.20;0.20;;;9.60;99.90;;;;;;5059233;28;20530;-78
2023/04/05 09:56:10;;;;;;;0.20;0.20;;;9.80;99.90;;;;;;5040403;28;20060;-78
2023/04/05 09:58:35;;;;;;;0.20;0.20;;;10.10;99.90;;;;;;5058138;28;20017;-78
2023/04/05 10:01:03;;;;;;;0.20;0.20;;;10.30;99.90;;;;;;5046818;28;20053;-78
2023/04/05 10:03:29;;;;;;;0.10;0.10;;;10.70;99.90;;;;;;5047807;28;20024;-78
2023/04/05 10:05:55;;;;;;;0.20;0.20;;;10.50;99.90;;;;;;5064630;28;20096;-78
2023/04/05 10:08:22;;;;;;;0.20;0.20;;;10.70;99.90;;;;;;5062757;28;20029;-78
2023/04/05 10:10:52;;;;;;;0.10;0.10;;;10.80;99.90;;;;;;5057794;28;20021;-78
2023/04/05 10:13:21;;;;;;;0.20;0.20;;;10.90;99.90;;;;;;5050313;28;20044;-78
2023/04/05 10:15:50;;;;;;;0.20;0.20;;;11.10;99.90;;;;;;5071421;28;20045;-78
2023/04/05 10:18:26;;;;;;;0.20;0.20;;;11.30;99.90;;;;;;5070965;28;20021;-78
2023/04/05 10:20:52;;;;;;;0.10;0.10;;;10.80;99.90;;;;;;5054859;28;20097;-78
2023/04/05 10:23:26;;;;;;;0.20;0.20;;;10.90;99.90;;;;;;5055323;28;20035;-78
2023/04/05 10:25:54;;;;;;;0.20;0.20;;;10.90;99.90;;;;;;5134401;23;20124;-78
2023/04/05 10:28:51;;;;;;;0.20;0.20;;;11.30;99.90;;;;;;5053818;28;20089;-78
2023/04/05 10:31:37;;;;;;;0.20;0.20;;;11.50;99.90;;;;;;5036904;28;20165;-78
2023/04/05 10:34:10;;;;;;;0.10;0.10;;;11.30;99.90;;;;;;5055176;28;20018;-79
2023/04/05 10:36:53;;;;;;;0.13;0.13;;;11.30;99.90;;;;;;5054360;28;20076;-78
2023/04/05 10:39:28;;;;;;;0.20;0.20;;;10.90;99.90;;;;;;5017311;28;20026;-78
2023/04/05 10:42:09;;;;;;;0.20;0.20;;;10.70;99.90;;;;;;5034487;28;20041;-79
2023/04/05 10:44:36;;;;;;;0.20;0.20;;;11.10;99.90;;;;;;5017973;28;20411;-78
2023/04/05 10:47:04;;;;;;;0.13;0.13;;;11.30;99.90;;;;;;5022401;28;20508;-78
2023/04/05 10:49:39;;;;;;;0.20;0.20;;;11.50;99.90;;;;;;5054853;28;20021;-79
2023/04/05 10:52:05;;;;;;;0.10;0.10;;;11.80;99.90;;;;;;5055126;28;20052;-79
2023/04/05 10:57:07;;;;;;;0.20;0.20;;;11.80;99.90;;;;;;5098683;22;20073;-78
2023/04/05 10:59:41;;;;;;;0.20;0.20;;;12.30;99.90;;;;;;5077078;28;20032;-79
2023/04/05 11:02:08;;;;;;;0.20;0.20;;;12.20;99.90;;;;;;5075309;28;20049;-78
2023/04/05 11:04:33;;;;;;;0.20;0.20;;;12.70;99.90;;;;;;5042915;28;20025;-78
2023/04/05 11:07:18;;;;;;;0.20;0.20;;;13.00;99.90;;;;;;5075207;28;20447;-78
2023/04/05 11:10:00;;;;;;;0.10;0.10;;;12.70;99.90;;;;;;5075645;28;20025;-79
2023/04/05 11:12:44;;;;;;;0.30;0.30;;;12.70;99.90;;;;;;5057869;28;20021;-79
2023/04/05 11:15:30;;;;;;;0.20;0.20;;;12.80;99.90;;;;;;5057660;28;20021;-79
2023/04/05 11:18:03;;;;;;;0.20;0.20;;;12.70;99.90;;;;;;5058247;28;20025;-79
2023/04/05 11:20:39;;;;;;;0.20;0.20;;;12.40;99.90;;;;;;5058064;28;20076;-79
2023/04/05 11:23:04;;;;;;;0.20;0.20;;;12.20;99.90;;;;;;5073104;28;20081;-79
2023/04/05 11:25:32;;;;;;;0.20;0.20;;;11.80;99.90;;;;;;5073736;28;20029;-79
2023/04/05 11:28:00;;;;;;;0.10;0.10;;;11.40;99.90;;;;;;5058011;28;20498;-78
2023/04/05 11:30:46;;;;;;;0.20;0.20;;;11.50;99.90;;;;;;5073380;28;20028;-78
2023/04/05 11:33:35;;;;;;;0.20;0.20;;;11.80;99.90;;;;;;5075131;28;20025;-78
2023/04/05 11:36:02;;;;;;;0.20;0.20;;;11.80;99.90;;;;;;5074603;28;20028;-78
2023/04/05 11:38:28;;;;;;;0.20;0.20;;;11.70;99.90;;;;;;5073286;28;20043;-78
2023/04/05 11:41:06;;;;;;;0.20;0.20;;;11.70;99.90;;;;;;5057733;28;20029;-78
2023/04/05 11:43:34;;;;;;;0.30;0.30;;;11.70;99.90;;;;;;5056362;28;20025;-78
2023/04/05 11:46:05;;;;;;;0.20;0.20;;;11.60;99.90;;;;;;5073632;28;20084;-78
2023/04/05 11:48:40;;;;;;;0.20;0.20;;;11.30;99.90;;;;;;5073774;28;20031;-78
2023/04/05 11:51:30;;;;;;;0.20;0.20;;;11.50;99.90;;;;;;5056717;28;20093;-79
2023/04/05 11:54:06;;;;;;;0.20;0.20;;;11.80;99.90;;;;;;5074225;28;20025;-78
2023/04/05 11:56:51;;;;;;;0.20;0.20;;;12.10;99.90;;;;;;5057506;28;20040;-79
2023/04/05 11:59:30;;;;;;;0.13;0.13;;;12.30;99.90;;;;;;5075058;28;20080;-78
2023/04/05 12:02:01;;;;;;;0.20;0.20;;;12.50;99.90;;;;;;5073141;28;20033;-78
2023/04/05 12:04:27;;;;;;;0.20;0.20;;;12.30;99.90;;;;;;5040706;28;20063;-78
2023/04/05 12:07:35;;;;;;;0.20;0.20;;;11.90;99.90;;;;;;5072227;22;20041;-75
2023/04/05 12:10:07;;;;;;;0.20;0.20;;;11.10;99.90;;;;;;4976656;28;20094;-75
2023/04/05 12:12:41;;;;;;;0.20;0.20;;;10.60;99.90;;;;;;4976420;28;20031;-75
2023/04/05 12:15:09;;;;;;;0.15;0.15;;;10.40;99.90;;;;;;5055307;22;20056;-75
2023/04/05 12:17:53;;;;;;;0.20;0.20;;;10.20;99.90;;;;;;5038964;28;20033;-75
2023/04/05 12:20:19;;;;;;;;;;;10.10;99.90;;;;;;5057597;28;20074;-75
2023/04/05 12:22:47;;;;;;;0.20;0.20;;;10.00;99.90;;;;;;5056889;28;19905;-75
2023/04/05 12:25:13;;;;;;;0.20;0.20;;;10.10;99.90;;;;;;5056166;28;20029;-75
2023/04/05 12:27:40;;;;;;;0.20;0.20;;;10.00;99.90;;;;;;5039361;28;20029;-75
2023/04/05 12:30:08;;;;;;;0.20;0.20;;;10.10;99.90;;;;;;5038994;28;20032;-75
2023/04/05 12:32:41;;;;;;;0.20;0.20;;;10.30;99.90;;;;;;5038471;28;20029;-75
2023/04/05 12:35:10;;;;;;;0.20;0.20;;;10.50;99.90;;;;;;5057096;28;20025;-75
2023/04/05 12:37:37;;;;;;;0.20;0.20;;;10.70;99.90;;;;;;5037004;28;20049;-75
2023/04/05 12:40:04;;;;;;;0.20;0.20;;;11.50;99.90;;;;;;5038728;28;20025;-75
2023/04/05 12:42:36;;;;;;;0.10;0.10;;;12.10;99.90;;;;;;5056660;28;20031;-75
2023/04/05 12:45:06;;;;;;;0.20;0.20;;;12.40;99.90;;;;;;5056550;28;20103;-75
2023/04/05 12:47:33;;;;;;;0.20;0.20;;;13.30;99.90;;;;;;5037888;28;20398;-75
2023/04/05 12:50:13;;;;;;;0.20;0.20;;;14.30;99.90;;;;;;5056177;28;20029;-75
2023/04/05 12:52:50;;;;;;;0.20;0.20;;;13.70;99.90;;;;;;5036964;28;20430;-75
2023/04/05 12:55:18;;;;;;;0.30;0.30;;;13.00;99.90;;;;;;5035916;28;20053;-75
2023/04/05 12:57:44;;;;;;;0.10;0.10;;;12.50;99.90;;;;;;5036121;28;20030;-76
2023/04/05 13:00:10;;;;;;;0.20;0.20;;;12.10;99.90;;;;;;5036245;28;20426;-75
2023/04/05 13:02:36;;;;;;;0.20;0.20;;;11.70;99.90;;;;;;5042898;28;20020;-75
2023/04/05 13:05:01;;;;;;;0.20;0.20;;;11.00;99.90;;;;;;5056131;28;20032;-75